Time;durP1;ratioP1;P1;durP2;ratioP2;P2;SDS_P1;SDS_P2;PMS_P1;PMS_P2;Temp;Humidity;BMP_temperature;BMP_pressure;BME280_temperature;BME280_humidity;BME280_pressure;Samples;Min_cycle;Max_cycle;Signal;HPM_P1;HPM_P2
2022/10/27 00:00:34;;;;;;;7.00;4.27;;;13.30;70.60;;;13.49;53.92;95838.72;5037725;28;20842;-54
2022/10/27 00:03:02;;;;;;;9.57;4.50;;;13.20;70.90;;;13.49;54.06;95841.34;5043096;28;20894;-53
2022/10/27 00:05:29;;;;;;;9.90;4.80;;;13.30;71.10;;;13.51;53.96;95839.44;5035299;28;20484;-52
2022/10/27 00:07:56;;;;;;;8.67;5.30;;;13.30;71.80;;;13.51;54.16;95836.78;5041557;28;20509;-53
2022/10/27 00:10:23;;;;;;;9.20;4.67;;;13.30;71.50;;;13.54;54.01;95836.53;5042747;28;21008;-55
2022/10/27 00:12:51;;;;;;;11.10;4.87;;;13.30;71.50;;;13.54;53.98;95838.31;5036702;28;20910;-55
2022/10/27 00:15:19;;;;;;;6.27;4.80;;;13.30;72.10;;;13.56;54.46;95839.88;5038619;28;20916;-55
2022/10/27 00:17:47;;;;;;;11.50;4.73;;;13.30;72.50;;;13.58;53.95;95837.09;5035464;28;20571;-55
2022/10/27 00:20:14;;;;;;;6.60;4.60;;;13.30;72.10;;;13.58;54.40;95840.56;5035374;28;20476;-54
2022/10/27 00:22:41;;;;;;;8.57;5.53;;;13.30;72.70;;;13.58;54.24;95843.19;5040513;28;20455;-53
2022/10/27 00:25:09;;;;;;;8.07;5.10;;;13.30;72.60;;;13.58;54.16;95848.47;5039393;28;20548;-55
2022/10/27 00:27:36;;;;;;;9.80;4.70;;;13.30;72.60;;;13.60;54.04;95851.84;5043372;28;20460;-53
2022/10/27 00:30:04;;;;;;;6.37;3.93;;;13.30;72.70;;;13.60;54.32;95856.28;5037720;28;20495;-55
2022/10/27 00:32:32;;;;;;;9.73;5.00;;;13.30;73.10;;;13.58;54.67;95851.13;5038828;28;20841;-53
2022/10/27 00:34:59;;;;;;;12.43;5.27;;;13.40;73.70;;;13.63;54.44;95856.00;5037876;28;20476;-56
2022/10/27 00:37:28;;;;;;;6.90;5.37;;;13.40;73.60;;;13.66;54.31;95860.19;5036706;28;20460;-55
2022/10/27 00:39:55;;;;;;;11.90;4.80;;;13.40;73.90;;;13.66;54.33;95853.09;5030963;28;20479;-55
2022/10/27 00:42:22;;;;;;;7.40;4.83;;;13.40;73.40;;;13.68;54.48;95860.91;5041142;28;20820;-55
2022/10/27 00:44:49;;;;;;;7.30;4.60;;;13.40;73.60;;;13.70;54.22;95859.81;5041472;28;21085;-56
2022/10/27 00:47:21;;;;;;;10.10;5.80;;;13.40;73.90;;;13.71;54.64;95876.50;5036105;28;20464;-55
2022/10/27 00:49:54;;;;;;;8.40;5.60;;;13.40;73.90;;;13.72;54.44;95873.72;5036668;28;20503;-54
2022/10/27 00:52:27;;;;;;;5.50;5.00;;;13.40;73.70;;;13.73;54.67;95861.34;5040787;28;20779;-54
2022/10/27 00:54:56;;;;;;;13.53;5.40;;;13.50;74.40;;;13.72;54.33;95857.03;5040321;28;20936;-55
2022/10/27 00:57:23;;;;;;;12.07;5.17;;;13.50;74.20;;;13.71;54.07;95861.47;5038387;28;20961;-57
2022/10/27 00:59:50;;;;;;;9.23;4.97;;;13.50;74.50;;;13.72;54.31;95862.31;5038823;28;20584;-54
2022/10/27 01:02:18;;;;;;;13.27;6.30;;;13.40;74.10;;;13.72;54.02;95862.31;5042254;28;20469;-56
2022/10/27 01:04:50;;;;;;;9.20;6.00;;;13.50;73.80;;;13.72;54.33;95862.31;5041646;28;20488;-54
2022/10/27 01:07:18;;;;;;;8.03;5.17;;;13.50;74.30;;;13.72;54.30;95872.88;5039234;28;20516;-55
2022/10/27 01:09:46;;;;;;;10.93;5.40;;;13.50;74.30;;;13.72;53.89;95875.53;5041801;28;20631;-55
2022/10/27 01:12:13;;;;;;;7.10;5.40;;;13.50;74.20;;;13.70;54.14;95875.66;5033610;28;20537;-55
2022/10/27 01:14:40;;;;;;;17.00;5.60;;;13.50;74.60;;;13.71;54.45;95879.13;5037693;28;20484;-56
2022/10/27 01:17:18;;;;;;;7.87;5.20;;;13.50;75.00;;;13.71;54.36;95881.78;5038556;28;21042;-55
2022/10/27 01:20:32;;;;;;;10.10;4.03;;;13.40;74.80;;;13.70;54.81;95874.84;5035754;28;20476;-55
2022/10/27 01:23:01;;;;;;;9.37;5.10;;;13.50;74.80;;;13.69;54.10;95875.78;5026319;28;20517;-54
2022/10/27 01:26:19;;;;;;;5.37;4.43;;;13.40;74.50;;;13.61;54.53;95868.53;5040259;28;21091;-54
2022/10/27 01:29:51;;;;;;;5.47;3.87;;;13.40;74.60;;;13.67;54.09;95890.97;5016085;28;21624;-54
2022/10/27 01:32:27;;;;;;;6.20;4.80;;;13.40;74.50;;;13.63;53.99;95888.59;4992405;28;20461;-55
2022/10/27 01:35:01;;;;;;;5.70;3.60;;;13.40;74.50;;;13.62;53.93;95880.78;4995290;28;20602;-56
2022/10/27 01:37:30;;;;;;;8.83;4.23;;;13.40;74.60;;;13.61;54.01;95881.75;5016031;28;20530;-53
2022/10/27 01:40:00;;;;;;;4.23;3.93;;;13.40;74.90;;;13.58;53.94;95880.22;5044522;28;20475;-55
2022/10/27 01:42:31;;;;;;;7.30;4.77;;;13.40;74.60;;;13.55;54.07;95872.53;5035319;28;21142;-56
2022/10/27 01:44:58;;;;;;;7.83;4.70;;;13.30;74.80;;;13.54;54.15;95876.16;5043584;28;20533;-54
2022/10/27 01:47:27;;;;;;;12.50;4.23;;;13.30;74.90;;;13.52;54.27;95870.16;5042799;28;20455;-55
2022/10/27 01:49:54;;;;;;;5.00;4.20;;;13.30;75.40;;;13.50;54.41;95864.19;5041494;28;20499;-55
2022/10/27 01:52:45;;;;;;;6.50;4.20;;;13.30;75.50;;;13.49;54.31;95867.78;5038101;28;20467;-53
2022/10/27 01:55:17;;;;;;;7.10;4.70;;;13.30;75.30;;;13.47;54.34;95867.09;5034975;28;20479;-54
2022/10/27 01:57:59;;;;;;;5.20;3.90;;;13.20;75.70;;;13.44;54.68;95876.13;5042802;28;20547;-54
2022/10/27 02:00:26;;;;;;;6.30;4.33;;;13.20;75.80;;;13.42;54.63;95866.66;5037622;28;21010;-59
2022/10/27 02:02:58;;;;;;;10.20;4.73;;;13.20;76.40;;;13.41;54.93;95875.56;5039423;28;20466;-54
2022/10/27 02:05:30;;;;;;;3.93;3.53;;;13.20;76.50;;;13.40;54.84;95874.72;5032573;28;20526;-52
2022/10/27 02:08:00;;;;;;;7.60;4.50;;;13.20;76.80;;;13.39;54.76;95874.84;5032470;28;20490;-53
2022/10/27 02:10:29;;;;;;;5.83;3.90;;;13.20;76.80;;;13.39;55.02;95877.50;5036665;28;20491;-54
2022/10/27 02:12:56;;;;;;;7.23;4.37;;;13.20;77.20;;;13.39;54.86;95880.16;5032666;28;20467;-54
2022/10/27 02:15:29;;;;;;;9.70;4.13;;;13.10;77.10;;;13.38;55.04;95879.28;5037546;28;20476;-54
2022/10/27 02:18:01;;;;;;;16.30;4.73;;;13.10;77.40;;;13.38;54.96;95881.94;5034179;28;20519;-56
2022/10/27 02:20:30;;;;;;;6.93;4.40;;;13.20;77.60;;;13.38;55.27;95870.53;5033493;28;20477;-54
2022/10/27 02:22:57;;;;;;;8.43;4.57;;;13.20;77.90;;;13.39;55.46;95872.22;5038360;28;20460;-55
2022/10/27 02:25:27;;;;;;;9.30;4.70;;;13.10;78.60;;;13.39;54.91;95872.22;5041630;28;20475;-54
2022/10/27 02:27:57;;;;;;;4.50;4.10;;;13.20;77.90;;;13.39;54.99;95877.50;5041711;28;20459;-55
2022/10/27 02:30:24;;;;;;;4.73;4.23;;;13.10;78.10;;;13.40;55.11;95879.16;5038319;28;20693;-56
2022/10/27 02:32:51;;;;;;;6.30;4.80;;;13.20;78.30;;;13.40;55.38;95873.88;5035704;28;20463;-55
2022/10/27 02:35:20;;;;;;;9.37;4.17;;;13.10;78.30;;;13.42;55.24;95890.44;5032172;28;20503;-54
2022/10/27 02:37:47;;;;;;;8.63;4.30;;;13.20;78.90;;;13.42;55.18;95887.81;5033109;28;20963;-54
2022/10/27 02:40:14;;;;;;;5.83;4.10;;;13.20;79.00;;;13.41;55.56;95888.75;5042346;28;20467;-56
2022/10/27 02:42:42;;;;;;;18.10;5.07;;;13.20;79.00;;;13.40;55.11;95889.72;5036045;28;20448;-56
2022/10/27 02:45:10;;;;;;;6.30;4.50;;;13.10;78.90;;;13.37;55.50;95888.19;5042293;28;20546;-54
2022/10/27 02:47:37;;;;;;;8.63;4.83;;;13.10;78.90;;;13.35;55.38;95892.75;5033000;28;20956;-53
2022/10/27 02:50:05;;;;;;;8.07;5.10;;;13.10;78.90;;;13.35;55.16;95898.03;5038435;28;20565;-54
2022/10/27 02:52:34;;;;;;;8.97;4.40;;;13.10;79.00;;;13.34;55.74;95900.81;5042478;28;20447;-55
2022/10/27 02:55:01;;;;;;;7.63;4.20;;;13.10;80.00;;;13.34;55.47;95893.75;5031040;28;20481;-54
2022/10/27 02:57:28;;;;;;;10.77;5.50;;;13.10;80.00;;;13.32;55.24;95892.16;5033230;28;20832;-57
2022/10/27 02:59:56;;;;;;;10.83;4.30;;;13.10;80.00;;;13.31;55.64;95903.69;5039698;28;20479;-55
2022/10/27 03:02:23;;;;;;;12.40;5.50;;;13.10;80.40;;;13.31;55.72;95912.47;5038157;28;20479;-56
2022/10/27 03:04:50;;;;;;;7.40;4.77;;;13.10;80.70;;;13.28;56.17;95913.56;5038673;28;20495;-54
2022/10/27 03:07:17;;;;;;;6.37;4.90;;;13.00;81.40;;;13.27;56.00;95919.81;5039332;28;20884;-54
2022/10/27 03:09:46;;;;;;;7.77;5.80;;;13.00;80.90;;;13.27;56.49;95918.97;5026110;28;20737;-53
2022/10/27 03:12:13;;;;;;;16.63;5.83;;;13.00;81.70;;;13.25;56.19;95907.72;5032351;28;20468;-54
2022/10/27 03:14:41;;;;;;;9.13;5.37;;;13.00;81.50;;;13.23;56.21;95915.78;5030471;28;20555;-55
2022/10/27 03:17:08;;;;;;;6.00;4.83;;;13.00;81.90;;;13.22;56.21;95924.66;5033771;28;20459;-55
2022/10/27 03:19:35;;;;;;;10.33;5.50;;;13.00;82.10;;;13.19;56.57;95916.16;5029528;28;20469;-54
2022/10/27 03:22:02;;;;;;;8.50;5.10;;;12.90;82.20;;;13.17;56.38;95916.28;5030166;28;20467;-56
2022/10/27 03:24:30;;;;;;;8.33;4.93;;;12.90;82.30;;;13.15;56.82;95920.88;5033709;28;20483;-55
2022/10/27 03:26:58;;;;;;;11.40;4.67;;;12.90;83.30;;;13.14;56.71;95916.56;5031534;28;20526;-54
2022/10/27 03:29:26;;;;;;;6.57;4.90;;;12.90;83.20;;;13.12;56.64;95918.50;5029426;28;20551;-55
2022/10/27 03:31:53;;;;;;;10.90;5.47;;;12.90;82.90;;;13.11;56.62;95921.25;5028030;28;20880;-53
2022/10/27 03:34:20;;;;;;;6.33;4.93;;;12.90;83.30;;;13.12;56.73;95922.91;5032374;28;21133;-56
2022/10/27 03:36:48;;;;;;;11.67;5.07;;;12.90;83.60;;;13.12;56.93;95910.56;5029243;28;20468;-54
2022/10/27 03:39:15;;;;;;;8.13;4.33;;;12.90;83.90;;;13.13;56.80;95919.31;5041225;28;20873;-55
2022/10/27 03:41:42;;;;;;;10.67;5.60;;;12.90;84.20;;;13.14;57.15;95908.63;5032096;28;20866;-55
2022/10/27 03:44:11;;;;;;;9.90;5.10;;;12.90;85.30;;;13.14;56.97;95910.44;5046063;28;20479;-55
2022/10/27 03:46:38;;;;;;;6.83;4.50;;;12.90;84.40;;;13.15;57.15;95914.72;5032270;28;20456;-56
2022/10/27 03:49:05;;;;;;;7.33;4.90;;;12.90;84.90;;;13.15;56.73;95918.22;5040583;28;20551;-57
2022/10/27 03:51:33;;;;;;;8.50;5.80;;;12.90;84.50;;;13.15;56.81;95912.94;5045189;28;20553;-53
2022/10/27 03:54:00;;;;;;;8.73;5.60;;;12.90;84.40;;;13.16;56.84;95913.78;5045960;28;20475;-55
2022/10/27 03:56:27;;;;;;;10.00;6.20;;;12.90;84.90;;;13.17;57.03;95915.47;5043193;28;20462;-54
2022/10/27 03:58:55;;;;;;;7.33;4.43;;;12.90;85.70;;;13.17;57.05;95915.47;5043720;28;20476;-54
2022/10/27 04:01:23;;;;;;;6.33;4.97;;;12.90;84.90;;;13.17;57.16;95915.47;5044314;28;20960;-54
2022/10/27 04:03:51;;;;;;;9.33;5.00;;;12.90;85.00;;;13.17;57.19;95912.81;5033604;28;20546;-55
2022/10/27 04:06:18;;;;;;;10.50;5.00;;;12.90;85.10;;;13.16;57.02;95919.06;5031205;28;20552;-55
2022/10/27 04:08:47;;;;;;;16.90;6.27;;;12.90;85.60;;;13.14;57.01;95929.75;5037157;28;20827;-55
2022/10/27 04:11:14;;;;;;;17.50;5.53;;;12.90;85.00;;;13.12;57.03;95923.78;5043536;28;21027;-56
2022/10/27 04:13:41;;;;;;;13.07;5.70;;;12.90;85.30;;;13.12;57.35;95923.78;5038999;28;20483;-55
2022/10/27 04:16:08;;;;;;;12.27;5.10;;;12.90;85.80;;;13.09;57.33;95924.84;5041468;28;20460;-55
2022/10/27 04:18:37;;;;;;;14.10;6.40;;;12.90;86.30;;;13.09;57.22;95918.75;5028892;28;20912;-54
2022/10/27 04:21:05;;;;;;;12.97;5.30;;;12.90;86.00;;;13.08;56.98;95932.91;5041248;28;20463;-55
2022/10/27 04:23:33;;;;;;;8.87;6.00;;;12.90;86.20;;;13.07;57.39;95937.38;5038120;28;20794;-57
2022/10/27 04:26:00;;;;;;;14.17;6.40;;;12.90;86.70;;;13.06;57.28;95929.56;5040964;28;20451;-55
2022/10/27 04:28:28;;;;;;;16.60;5.30;;;12.80;86.30;;;13.03;57.37;95932.47;5034599;28;20476;-54
2022/10/27 04:30:55;;;;;;;11.90;5.90;;;12.80;86.80;;;13.02;57.38;95938.72;5044547;28;20975;-55
2022/10/27 04:33:22;;;;;;;11.23;5.70;;;12.80;86.90;;;12.99;57.53;95938.97;5044956;28;20455;-55
2022/10/27 04:35:51;;;;;;;11.23;6.63;;;12.80;87.00;;;12.97;57.70;95941.75;5041869;28;20452;-56
2022/10/27 04:38:19;;;;;;;16.27;6.10;;;12.80;87.20;;;12.96;57.63;95939.22;5033886;28;20560;-54
2022/10/27 04:40:46;;;;;;;7.10;5.27;;;12.70;87.50;;;12.90;57.69;95940.56;5038078;28;20452;-54
2022/10/27 04:43:13;;;;;;;21.63;6.80;;;12.70;87.40;;;12.87;57.51;95944.31;5037322;28;20911;-55
2022/10/27 04:45:42;;;;;;;12.17;6.80;;;12.70;87.40;;;12.82;57.67;95946.47;5037126;28;20463;-55
2022/10/27 04:48:09;;;;;;;26.83;6.80;;;12.60;87.90;;;12.78;57.96;95937.16;5037736;28;20973;-55
2022/10/27 04:50:36;;;;;;;15.17;7.30;;;12.60;88.10;;;12.74;58.12;95946.28;5038116;28;20852;-52
2022/10/27 04:53:05;;;;;;;16.93;6.77;;;12.60;88.60;;;12.70;58.32;95947.50;5025580;28;20499;-56
2022/10/27 04:55:33;;;;;;;21.63;7.00;;;12.50;89.00;;;12.67;58.89;95950.38;5032627;28;20584;-54
2022/10/27 04:58:00;;;;;;;20.27;7.80;;;12.50;89.90;;;12.64;58.36;95956.78;5040435;28;20539;-54
2022/10/27 05:00:27;;;;;;;27.00;6.67;;;12.40;89.60;;;12.60;58.18;95949.22;5041822;28;20545;-56
2022/10/27 05:02:55;;;;;;;27.27;7.03;;;12.40;89.80;;;12.59;58.70;95958.09;5040097;28;20463;-55
2022/10/27 05:05:22;;;;;;;21.13;7.37;;;12.40;90.00;;;12.56;58.50;95964.44;5032843;28;20487;-54
2022/10/27 05:07:53;;;;;;;24.97;7.43;;;12.40;90.20;;;12.54;58.74;95967.22;5042101;28;20464;-54
2022/10/27 05:10:22;;;;;;;26.40;8.37;;;12.40;90.20;;;12.52;58.46;95970.97;5039823;28;20504;-55
2022/10/27 05:12:50;;;;;;;19.90;6.80;;;12.30;90.20;;;12.51;58.81;95979.84;5044533;28;20450;-56
2022/10/27 05:15:17;;;;;;;23.83;9.63;;;12.30;90.30;;;12.47;59.01;95989.81;5041816;28;20492;-55
2022/10/27 05:17:44;;;;;;;24.53;9.20;;;12.30;90.30;;;12.45;59.08;95989.06;5042446;28;20461;-56
2022/10/27 05:20:12;;;;;;;36.47;9.70;;;12.30;90.50;;;12.47;58.90;95986.31;5037660;28;20553;-57
2022/10/27 05:22:39;;;;;;;41.43;10.80;;;12.20;90.30;;;12.46;58.83;95993.41;5041759;28;20533;-56
2022/10/27 05:25:08;;;;;;;28.47;10.00;;;12.30;90.50;;;12.48;59.07;95996.75;5040464;28;20920;-57
2022/10/27 05:27:36;;;;;;;18.90;8.43;;;12.20;90.50;;;12.48;58.71;96007.28;5044626;28;20452;-54
2022/10/27 05:30:05;;;;;;;14.80;5.93;;;12.30;90.50;;;12.49;58.88;96000.25;5040661;28;20906;-55
2022/10/27 05:32:32;;;;;;;12.77;6.33;;;12.30;90.60;;;12.50;59.40;96009.81;5042480;28;20513;-55
2022/10/27 05:34:59;;;;;;;13.37;5.80;;;12.30;91.10;;;12.52;59.70;96006.09;5043018;28;20523;-58
2022/10/27 05:37:26;;;;;;;15.00;5.60;;;12.30;91.60;;;12.57;59.63;96015.47;5039340;28;20447;-55
2022/10/27 05:39:54;;;;;;;10.00;5.40;;;12.30;91.60;;;12.61;58.80;96017.72;5040994;28;20476;-55
2022/10/27 05:42:21;;;;;;;15.03;5.90;;;12.40;91.10;;;12.64;58.40;96020.13;5037440;28;20443;-55
2022/10/27 05:44:50;;;;;;;13.60;5.63;;;12.40;90.80;;;12.67;58.38;96026.94;5040390;28;20475;-55
2022/10/27 05:47:17;;;;;;;15.80;5.30;;;12.50;90.60;;;12.70;58.05;96029.31;5044586;28;20456;-56
2022/10/27 05:49:44;;;;;;;5.80;5.13;;;12.50;90.30;;;12.74;58.21;96046.59;5041354;28;20472;-56
2022/10/27 05:52:12;;;;;;;9.63;4.50;;;12.50;90.30;;;12.80;57.96;96040.81;5042568;28;20496;-55
2022/10/27 05:54:39;;;;;;;13.67;5.50;;;12.60;90.30;;;12.94;58.03;96041.50;5035365;28;20464;-54
2022/10/27 05:57:06;;;;;;;9.43;5.90;;;12.60;90.30;;;13.05;57.66;96050.22;5044354;28;20447;-56
2022/10/27 05:59:33;;;;;;;17.40;6.00;;;12.80;90.00;;;13.22;57.08;96046.19;5040367;28;20472;-55
2022/10/27 06:02:02;;;;;;;12.90;5.80;;;12.90;89.80;;;13.54;56.84;96047.13;5042866;28;20454;-56
2022/10/27 06:04:30;;;;;;;30.30;8.07;;;13.20;89.70;;;14.01;56.19;96046.72;5042336;28;20476;-56
2022/10/27 06:06:57;;;;;;;25.30;6.53;;;13.60;89.50;;;14.56;55.64;96047.19;5041625;28;20959;-55
2022/10/27 06:09:24;;;;;;;17.83;6.30;;;14.00;88.30;;;15.17;54.50;96058.63;5042832;28;20471;-55
2022/10/27 06:11:52;;;;;;;14.43;6.27;;;14.60;86.70;;;15.79;53.27;96058.34;5043319;28;20487;-55
2022/10/27 06:14:19;;;;;;;12.73;4.90;;;15.20;85.20;;;16.42;52.22;96066.50;5041295;28;20637;-54
2022/10/27 06:16:46;;;;;;;9.90;5.40;;;15.80;82.80;;;17.05;51.00;96070.25;5041678;28;20509;-55
2022/10/27 06:19:15;;;;;;;13.13;5.20;;;16.40;80.40;;;17.68;50.18;96071.16;5040262;28;20468;-54
2022/10/27 06:21:43;;;;;;;5.23;3.67;;;17.00;78.50;;;18.28;48.20;96065.94;5041345;28;20496;-57
2022/10/27 06:24:10;;;;;;;6.93;4.47;;;17.60;75.60;;;18.89;47.41;96071.22;5042938;28;20472;-54
2022/10/27 06:26:37;;;;;;;10.83;4.60;;;18.20;73.50;;;19.49;46.68;96074.66;5042642;28;20981;-56
2022/10/27 06:29:05;;;;;;;6.83;4.57;;;18.80;72.00;;;20.09;46.14;96062.81;5041373;28;20472;-57
2022/10/27 06:31:32;;;;;;;10.30;5.30;;;19.40;69.90;;;20.69;44.78;96064.16;5043802;28;20492;-55
2022/10/27 06:33:59;;;;;;;10.30;5.63;;;20.00;67.90;;;21.30;43.86;96083.09;5048206;28;20467;-54
2022/10/27 06:36:28;;;;;;;7.33;5.47;;;20.60;65.90;;;21.91;43.42;96081.50;5045349;28;20535;-56
2022/10/27 06:38:56;;;;;;;7.97;5.73;;;21.10;65.10;;;22.35;42.51;96075.41;5039028;28;20472;-56
2022/10/27 06:41:23;;;;;;;12.40;4.20;;;21.50;63.00;;;22.44;41.74;96084.22;5045438;28;20448;-58
2022/10/27 06:43:50;;;;;;;6.63;4.60;;;21.70;60.90;;;22.34;41.59;96079.94;5045090;28;21023;-55
2022/10/27 06:46:18;;;;;;;11.20;5.47;;;21.70;59.50;;;22.41;41.54;96080.03;5045630;28;20465;-56
2022/10/27 06:48:45;;;;;;;15.03;5.47;;;21.90;59.50;;;22.78;40.84;96074.78;5048592;28;20543;-53
2022/10/27 06:51:12;;;;;;;8.23;4.43;;;22.20;59.00;;;23.31;40.50;96079.97;5039163;28;20583;-55
2022/10/27 06:53:41;;;;;;;12.20;5.40;;;22.60;58.70;;;23.90;40.52;96082.44;5047284;28;20503;-55
2022/10/27 06:56:08;;;;;;;26.07;5.80;;;23.10;58.10;;;24.48;39.54;96079.56;5044294;28;20451;-55
2022/10/27 06:58:38;;;;;;;15.60;5.17;;;23.70;56.80;;;25.01;38.58;96075.53;5045798;28;20478;-56
2022/10/27 07:01:05;;;;;;;12.40;4.77;;;24.30;55.90;;;25.53;37.81;96078.59;5045515;28;20553;-55
2022/10/27 07:03:34;;;;;;;8.70;5.50;;;24.80;54.60;;;25.97;36.87;96076.41;5040940;28;20483;-57
2022/10/27 07:06:01;;;;;;;14.27;5.27;;;25.30;53.70;;;26.31;36.29;96086.16;5042075;28;20519;-55
2022/10/27 07:08:28;;;;;;;10.13;5.17;;;25.70;52.60;;;26.57;35.33;96081.75;5047136;28;20622;-54
2022/10/27 07:10:57;;;;;;;10.97;5.70;;;26.10;51.20;;;26.67;34.97;96081.38;5042240;28;20494;-55
2022/10/27 07:13:25;;;;;;;14.87;6.07;;;26.30;49.70;;;26.62;34.75;96092.75;5044193;28;20503;-54
2022/10/27 07:15:52;;;;;;;15.70;5.37;;;26.40;49.40;;;26.54;34.46;96095.66;5039080;28;20887;-56
2022/10/27 07:18:19;;;;;;;11.70;5.57;;;26.40;48.60;;;26.32;34.29;96093.22;5046163;28;20485;-53
2022/10/27 07:20:47;;;;;;;13.50;4.97;;;26.30;48.10;;;26.08;34.55;96100.88;5044303;28;20447;-58
2022/10/27 07:23:14;;;;;;;10.93;5.47;;;26.10;48.40;;;26.24;34.03;96094.25;5044780;28;20513;-54
2022/10/27 07:25:41;;;;;;;13.73;5.33;;;26.30;48.20;;;26.68;33.38;96099.19;5047519;28;21034;-54
2022/10/27 07:28:10;;;;;;;16.17;6.47;;;26.70;47.30;;;27.16;33.20;96104.25;5044221;28;20455;-53
2022/10/27 07:30:39;;;;;;;11.37;5.43;;;27.20;47.20;;;27.54;32.53;96100.78;5045077;28;20439;-55
2022/10/27 07:33:09;;;;;;;14.33;5.50;;;27.60;45.90;;;27.80;32.09;96102.50;5043968;28;20773;-54
2022/10/27 07:35:36;;;;;;;16.33;5.20;;;27.90;45.80;;;28.02;32.22;96108.38;5047851;28;20545;-55
2022/10/27 07:38:03;;;;;;;15.10;5.27;;;28.10;45.20;;;28.22;31.86;96112.81;5039769;28;20460;-55
2022/10/27 07:40:31;;;;;;;19.63;5.97;;;28.20;45.10;;;28.49;31.29;96110.72;5046747;28;20502;-55
2022/10/27 07:42:59;;;;;;;11.73;5.87;;;28.30;44.80;;;28.77;31.27;96112.97;5041796;28;20451;-55
2022/10/27 07:45:28;;;;;;;10.03;5.00;;;28.50;44.20;;;29.04;31.01;96109.97;5045125;28;20468;-55
2022/10/27 07:47:56;;;;;;;15.63;5.87;;;28.60;43.70;;;29.32;29.92;96111.34;5044329;28;20456;-55
2022/10/27 07:50:26;;;;;;;14.70;7.20;;;28.90;43.30;;;29.54;29.69;96108.16;5047326;28;20538;-55
2022/10/27 07:52:54;;;;;;;21.10;6.53;;;29.10;43.10;;;29.73;29.66;96108.91;5041796;28;20503;-56
2022/10/27 07:55:22;;;;;;;25.77;6.37;;;29.30;42.70;;;29.93;29.83;96106.78;5046683;28;20467;-55
2022/10/27 07:57:59;;;;;;;20.57;6.47;;;29.40;42.30;;;30.14;28.97;96101.88;5041918;28;20463;-57
2022/10/27 08:00:28;;;;;;;16.93;5.40;;;29.60;41.70;;;30.31;28.63;96105.53;5043479;28;20475;-54
2022/10/27 08:02:55;;;;;;;13.50;5.53;;;29.80;41.50;;;30.47;28.49;96101.34;5044589;28;20459;-57
2022/10/27 08:05:22;;;;;;;17.57;5.00;;;29.90;41.00;;;30.62;27.95;96087.28;5044769;28;20483;-54
2022/10/27 08:07:50;;;;;;;10.90;5.20;;;30.10;40.40;;;30.66;27.77;96104.78;5044133;28;20971;-54
2022/10/27 08:10:17;;;;;;;20.50;5.87;;;30.10;40.00;;;30.73;28.10;96100.03;5044426;28;20482;-55
2022/10/27 08:12:44;;;;;;;11.13;4.43;;;30.20;39.80;;;30.86;27.92;96100.84;5045323;28;20494;-59
2022/10/27 08:15:12;;;;;;;7.43;4.37;;;30.30;39.50;;;30.95;27.62;96106.75;5044605;28;20475;-55
2022/10/27 08:17:40;;;;;;;15.83;4.60;;;30.30;39.50;;;31.09;27.67;96100.00;5043061;28;20451;-56
2022/10/27 08:20:09;;;;;;;7.40;4.43;;;30.50;39.30;;;31.22;27.32;96102.47;5045237;28;20471;-55
2022/10/27 08:22:36;;;;;;;10.40;3.80;;;30.60;39.00;;;31.40;27.15;96112.38;5043538;28;20454;-56
2022/10/27 08:25:05;;;;;;;9.50;4.07;;;30.80;38.80;;;31.67;27.13;96098.22;5042271;28;20476;-56
2022/10/27 08:27:33;;;;;;;5.30;3.90;;;30.90;38.50;;;31.94;26.51;96106.56;5045889;28;20448;-56
2022/10/27 08:30:00;;;;;;;7.97;3.87;;;31.20;38.00;;;32.09;26.52;96106.06;5043409;28;20572;-56
2022/10/27 08:32:27;;;;;;;5.20;4.50;;;31.40;37.90;;;32.26;26.09;96107.97;5044029;28;20725;-56
2022/10/27 08:34:56;;;;;;;13.13;5.00;;;31.50;37.30;;;32.40;26.27;96105.75;5044299;28;20468;-55
2022/10/27 08:37:23;;;;;;;6.77;4.40;;;31.70;37.30;;;32.57;25.94;96108.47;5041565;28;20661;-56
2022/10/27 08:39:51;;;;;;;4.77;4.30;;;31.80;37.20;;;32.72;25.97;96103.28;5038174;28;20222;-56
2022/10/27 08:42:25;;;;;;;6.10;3.70;;;32.00;36.80;;;32.85;25.55;96102.91;5044396;28;20201;-54
2022/10/27 08:44:53;;;;;;;14.23;4.77;;;32.10;36.70;;;33.05;25.32;96101.53;5042421;28;20221;-55
2022/10/27 08:47:22;;;;;;;5.23;3.67;;;32.30;36.40;;;33.19;25.38;96096.56;5044473;28;20321;-55
2022/10/27 08:49:51;;;;;;;7.47;4.03;;;32.40;36.10;;;33.34;24.89;96093.19;5041717;28;20241;-56
2022/10/27 08:52:25;;;;;;;8.93;3.83;;;32.50;35.80;;;33.41;24.59;96089.19;5042843;28;20232;-54
2022/10/27 08:54:55;;;;;;;3.30;2.80;;;32.70;35.10;;;33.42;24.85;96090.84;5036785;28;20315;-54
2022/10/27 08:57:25;;;;;;;7.17;3.67;;;32.70;35.20;;;33.56;24.60;96090.47;5039253;28;20709;-55
2022/10/27 08:59:54;;;;;;;11.93;4.10;;;32.70;35.10;;;33.70;24.87;96085.44;5042560;28;20235;-56
2022/10/27 09:02:45;;;;;;;9.13;3.58;;;32.90;35.00;;;33.81;24.03;96089.94;5043108;28;20209;-55
2022/10/27 09:05:22;;;;;;;7.35;3.60;;;33.00;34.80;;;33.98;23.79;96091.72;5041427;28;20229;-53
2022/10/27 09:07:56;;;;;;;15.48;3.63;;;33.20;34.60;;;34.07;23.79;96091.00;5041390;28;20215;-55
2022/10/27 09:10:38;;;;;;;6.13;4.25;;;33.30;34.40;;;34.13;23.36;96087.22;5036005;28;20307;-55
2022/10/27 09:13:09;;;;;;;5.28;3.50;;;33.40;34.00;;;34.18;23.76;96086.44;5036466;28;20596;-52
2022/10/27 09:15:42;;;;;;;9.45;3.90;;;33.50;34.00;;;34.24;23.25;96085.44;5044008;28;20201;-55
2022/10/27 09:18:18;;;;;;;10.05;3.05;;;33.50;33.80;;;34.33;23.04;96088.47;5034993;28;20193;-54
2022/10/27 09:20:46;;;;;;;6.28;3.72;;;33.60;33.60;;;34.31;23.52;96093.41;5041606;28;20204;-55
2022/10/27 09:23:17;;;;;;;6.13;3.55;;;33.60;33.40;;;34.32;23.44;96088.75;5043302;28;20678;-54
2022/10/27 09:25:46;;;;;;;7.28;3.80;;;33.60;33.30;;;34.28;23.03;96089.28;5044696;28;20205;-55
2022/10/27 09:28:19;;;;;;;6.63;3.53;;;33.60;33.30;;;34.17;22.85;96079.31;5043494;28;20578;-53
2022/10/27 09:30:48;;;;;;;9.88;3.53;;;33.50;32.90;;;34.02;23.82;96076.47;5044015;28;20300;-54
2022/10/27 09:33:19;;;;;;;4.40;3.03;;;33.50;33.10;;;33.93;23.35;96065.22;5039751;28;20233;-55
2022/10/27 09:35:47;;;;;;;8.02;4.35;;;33.30;32.90;;;33.90;23.10;96072.00;5043304;28;20200;-54
2022/10/27 09:38:19;;;;;;;10.15;3.53;;;33.30;33.00;;;33.83;23.34;96063.19;5039603;28;20202;-56
2022/10/27 09:40:46;;;;;;;4.90;3.20;;;33.20;32.90;;;33.83;23.17;96068.66;5044976;28;20197;-56
2022/10/27 09:43:14;;;;;;;11.15;3.05;;;33.10;33.00;;;33.89;23.13;96064.88;5041616;28;20296;-55
2022/10/27 09:45:42;;;;;;;7.97;3.50;;;33.10;32.70;;;33.96;22.79;96061.97;5043570;28;20254;-54
2022/10/27 09:48:15;;;;;;;12.57;3.75;;;33.20;32.90;;;34.00;22.48;96057.59;5042752;28;20197;-55
2022/10/27 09:50:46;;;;;;;4.57;3.20;;;33.30;32.50;;;34.01;22.91;96055.72;5044770;28;20244;-56
2022/10/27 09:53:41;;;;;;;7.22;3.70;;;33.30;32.50;;;33.88;22.60;96055.06;5034821;28;20220;-55
2022/10/27 09:56:10;;;;;;;8.88;3.50;;;33.30;31.90;;;33.86;23.30;96054.47;5039458;28;20209;-54
2022/10/27 09:58:49;;;;;;;9.40;3.10;;;33.30;32.50;;;33.85;23.06;96050.13;5043959;28;20221;-56
2022/10/27 10:01:16;;;;;;;8.95;3.03;;;33.20;32.50;;;33.89;23.51;96050.41;5042291;28;20234;-55
2022/10/27 10:04:00;;;;;;;14.25;4.30;;;33.20;32.60;;;33.99;22.68;96041.50;5042254;28;20232;-55
2022/10/27 10:06:33;;;;;;;14.55;3.47;;;33.30;32.50;;;34.13;22.83;96046.25;5042503;28;20192;-57
2022/10/27 10:09:23;;;;;;;4.88;2.90;;;33.40;32.50;;;34.37;22.03;96051.38;5040021;28;20328;-53
2022/10/27 10:11:50;;;;;;;8.32;2.42;;;33.60;31.70;;;34.47;22.29;96050.63;5035375;28;20576;-56
2022/10/27 10:14:22;;;;;;;8.05;3.60;;;33.70;31.80;;;34.53;22.66;96051.47;5042699;28;20660;-54
2022/10/27 10:16:50;;;;;;;6.20;3.67;;;33.80;31.70;;;34.62;22.66;96045.25;5041442;28;20782;-54
2022/10/27 10:19:19;;;;;;;5.72;3.70;;;33.90;31.50;;;34.69;20.66;96041.47;5037994;28;20791;-56
2022/10/27 10:21:49;;;;;;;9.30;5.68;;;34.00;29.50;;;34.60;22.15;96044.69;5040080;28;20288;-60
2022/10/27 10:24:23;;;;;;;10.73;7.05;;;34.00;30.80;;;34.55;22.17;96038.38;5036375;28;20232;-54